createdAt,value
2018-09-01T00:00:53.964Z,5.90
2018-09-01T00:01:53.983Z,5.70
2018-09-01T00:02:53.994Z,5.30
2018-09-01T00:03:54.028Z,4.90
2018-09-01T00:04:54.003Z,6.50
2018-09-01T00:05:54.081Z,6.30
2018-09-01T00:06:54.027Z,6.40
2018-09-01T00:07:54.056Z,6.60
2018-09-01T00:08:54.089Z,5.10
2018-09-01T00:09:54.096Z,6.10
2018-09-01T00:10:54.100Z,5.20
2018-09-01T00:11:54.117Z,6.00
2018-09-01T00:12:54.110Z,4.30
2018-09-01T00:13:54.119Z,4.40
2018-09-01T00:14:54.104Z,3.90
2018-09-01T00:15:54.132Z,4.40
2018-09-01T00:16:54.165Z,4.90
2018-09-01T00:17:54.147Z,3.90
2018-09-01T00:18:54.167Z,3.90
2018-09-01T00:19:54.186Z,3.90
2018-09-01T00:20:54.186Z,3.80
2018-09-01T00:21:54.202Z,3.80
2018-09-01T00:22:54.220Z,3.60
2018-09-01T00:23:54.240Z,3.60
2018-09-01T00:24:54.217Z,3.50
2018-09-01T00:25:54.237Z,4.60
2018-09-01T00:26:54.253Z,3.70
2018-09-01T00:27:54.303Z,4.50
2018-09-01T00:28:54.290Z,4.70
2018-09-01T00:29:54.298Z,4.20
2018-09-01T00:30:54.277Z,3.80
2018-09-01T00:31:54.278Z,3.30
2018-09-01T00:32:54.284Z,3.50
2018-09-01T00:33:54.331Z,3.90
2018-09-01T00:34:54.359Z,3.90
2018-09-01T00:35:54.343Z,3.80
2018-09-01T00:36:54.330Z,3.50
2018-09-01T00:37:54.371Z,3.60
2018-09-01T00:38:54.391Z,4.40
2018-09-01T00:39:54.454Z,4.10
2018-09-01T00:40:54.409Z,3.70
2018-09-01T00:41:54.378Z,3.60
2018-09-01T00:42:54.429Z,3.70
2018-09-01T00:43:54.445Z,3.70
2018-09-01T00:44:54.446Z,3.70
2018-09-01T00:45:54.433Z,3.70
2018-09-01T00:46:54.430Z,3.60
2018-09-01T00:47:54.481Z,3.30
2018-09-01T00:48:54.507Z,3.10
2018-09-01T00:49:54.510Z,3.10
2018-09-01T00:50:54.478Z,3.00
2018-09-01T00:51:54.496Z,3.40
2018-09-01T00:52:54.515Z,3.50
2018-09-01T00:53:54.562Z,3.40
2018-09-01T00:54:54.545Z,3.60
2018-09-01T00:55:54.566Z,3.80
2018-09-01T00:56:54.564Z,4.20
2018-09-01T00:57:54.551Z,3.50
2018-09-01T00:58:54.565Z,3.20
2018-09-01T00:59:54.591Z,3.20
2018-09-01T01:00:54.626Z,4.60
2018-09-01T01:01:54.593Z,4.00
2018-09-01T01:02:54.598Z,4.30
2018-09-01T01:03:54.653Z,4.70
2018-09-01T01:04:54.657Z,4.40
2018-09-01T01:05:54.649Z,5.70
2018-09-01T01:06:54.653Z,4.80
2018-09-01T01:07:54.661Z,5.50
2018-09-01T01:08:54.702Z,5.60
2018-09-01T01:09:54.695Z,6.00
2018-09-01T01:10:54.706Z,6.70
2018-09-01T01:11:54.716Z,6.20
2018-09-01T01:12:54.717Z,6.00
2018-09-01T01:13:54.731Z,6.00
2018-09-01T01:14:54.727Z,4.80
2018-09-01T01:15:54.763Z,5.00
2018-09-01T01:16:54.743Z,4.40
2018-09-01T01:17:54.751Z,4.20
2018-09-01T01:18:54.777Z,4.00
2018-09-01T01:19:54.795Z,3.40
2018-09-01T01:20:54.810Z,3.50
2018-09-01T01:21:54.788Z,3.40
2018-09-01T01:22:54.804Z,3.90
2018-09-01T01:23:54.833Z,3.90
2018-09-01T01:24:54.829Z,4.40
2018-09-01T01:25:54.895Z,4.00
2018-09-01T01:26:54.866Z,4.80
2018-09-01T01:27:54.861Z,3.90
2018-09-01T01:28:54.853Z,3.90
2018-09-01T01:29:54.895Z,3.70
2018-09-01T01:30:54.922Z,3.40
2018-09-01T01:31:54.937Z,3.50
2018-09-01T01:32:54.946Z,4.40
2018-09-01T01:33:54.993Z,5.00
2018-09-01T01:34:54.948Z,3.80
2018-09-01T01:35:54.961Z,3.80
2018-09-01T01:36:54.992Z,3.40
2018-09-01T01:37:54.982Z,3.80
2018-09-01T01:38:54.962Z,3.80
2018-09-01T01:39:54.972Z,4.20
2018-09-01T01:40:55.030Z,3.60
2018-09-01T01:41:55.029Z,3.80
2018-09-01T01:42:55.041Z,3.20
2018-09-01T01:43:55.073Z,3.40
2018-09-01T01:44:55.023Z,3.40
2018-09-01T01:45:55.045Z,3.50
2018-09-01T01:46:55.049Z,3.40
2018-09-01T01:47:55.093Z,3.40
2018-09-01T01:48:55.057Z,3.50
2018-09-01T01:49:55.082Z,3.50
2018-09-01T01:50:55.081Z,3.60
2018-09-01T01:51:55.170Z,3.50
2018-09-01T01:52:55.101Z,3.50
2018-09-01T01:53:55.120Z,3.30
2018-09-01T01:54:55.133Z,3.60
2018-09-01T01:55:55.157Z,3.30
2018-09-01T01:56:55.148Z,3.90
2018-09-01T01:57:55.201Z,4.10
2018-09-01T01:58:55.208Z,3.30
2018-09-01T01:59:55.183Z,3.60
2018-09-01T02:00:55.182Z,3.30
2018-09-01T02:01:55.191Z,3.40
2018-09-01T02:02:55.242Z,3.60
2018-09-01T02:03:55.216Z,4.00
2018-09-01T02:04:55.238Z,3.70
2018-09-01T02:05:55.257Z,3.50
2018-09-01T02:06:55.240Z,4.30
2018-09-01T02:07:55.301Z,3.40
2018-09-01T02:08:55.277Z,3.40
2018-09-01T02:09:55.288Z,3.70
2018-09-01T02:10:55.314Z,3.30
2018-09-01T02:11:55.314Z,3.60
2018-09-01T02:12:55.349Z,3.40
2018-09-01T02:13:55.331Z,3.40
2018-09-01T02:14:55.342Z,3.50
2018-09-01T02:15:55.342Z,3.40
2018-09-01T02:16:55.346Z,3.50
2018-09-01T02:17:55.375Z,4.00
2018-09-01T02:18:55.387Z,3.70
2018-09-01T02:19:55.431Z,3.70
2018-09-01T02:20:55.373Z,3.70
2018-09-01T02:21:55.385Z,3.80
2018-09-01T02:22:55.413Z,4.10
2018-09-01T02:23:55.418Z,3.70
2018-09-01T02:24:55.426Z,4.20
2018-09-01T02:25:55.454Z,3.50
2018-09-01T02:26:55.444Z,4.10
2018-09-01T02:27:55.467Z,4.00
2018-09-01T02:28:55.493Z,4.00
2018-09-01T02:29:55.494Z,3.50
2018-09-01T02:30:55.549Z,3.60
2018-09-01T02:31:55.480Z,4.10
2018-09-01T02:32:55.508Z,3.60
2018-09-01T02:33:55.558Z,3.70
2018-09-01T02:34:55.522Z,3.60
2018-09-01T02:35:55.542Z,3.90
2018-09-01T02:36:55.552Z,3.70
2018-09-01T02:37:55.549Z,3.70
2018-09-01T02:38:55.577Z,3.90
2018-09-01T02:39:55.632Z,4.20
2018-09-01T02:40:55.579Z,3.90
2018-09-01T02:41:55.576Z,3.80
2018-09-01T02:42:55.610Z,4.00
2018-09-01T02:43:55.626Z,3.70
2018-09-01T02:44:55.636Z,3.50
2018-09-01T02:45:55.644Z,3.90
2018-09-01T02:46:55.641Z,3.90
2018-09-01T02:47:55.667Z,3.90
2018-09-01T02:48:55.658Z,4.00
2018-09-01T02:49:55.650Z,3.70
2018-09-01T02:50:55.662Z,4.40
2018-09-01T02:51:55.713Z,4.50
2018-09-01T02:52:55.679Z,3.80
2018-09-01T02:53:55.728Z,4.10
2018-09-01T02:54:55.723Z,4.20
2018-09-01T02:55:55.726Z,3.80
2018-09-01T02:56:55.776Z,4.00
2018-09-01T02:57:55.760Z,3.70
2018-09-01T02:58:55.736Z,3.70
2018-09-01T02:59:55.780Z,3.90
2018-09-01T03:00:55.779Z,3.90
2018-09-01T03:01:55.827Z,3.50
2018-09-01T03:02:55.813Z,3.60
2018-09-01T03:03:55.795Z,3.60
2018-09-01T03:04:55.843Z,3.40
2018-09-01T03:05:55.826Z,4.30
2018-09-01T03:06:55.817Z,4.20
2018-09-01T03:07:55.833Z,4.00
2018-09-01T03:08:55.899Z,3.80
2018-09-01T03:09:55.864Z,4.70
2018-09-01T03:10:55.861Z,4.60
2018-09-01T03:11:55.874Z,4.30
2018-09-01T03:12:55.868Z,5.50
2018-09-01T03:13:55.935Z,4.10
2018-09-01T03:14:55.944Z,3.80
2018-09-01T03:15:55.920Z,4.20
2018-09-01T03:16:55.920Z,4.00
2018-09-01T03:17:55.915Z,4.10
2018-09-01T03:18:55.942Z,3.70
2018-09-01T03:19:55.993Z,4.00
2018-09-01T03:20:55.951Z,4.00
2018-09-01T03:21:55.982Z,3.80
2018-09-01T03:22:55.977Z,3.90
2018-09-01T03:23:55.987Z,3.50
2018-09-01T03:24:56.020Z,3.90
2018-09-01T03:25:56.034Z,3.60
2018-09-01T03:26:56.048Z,3.50
2018-09-01T03:27:56.029Z,3.70
2018-09-01T03:28:56.036Z,3.80
2018-09-01T03:29:56.037Z,3.90
2018-09-01T03:30:56.102Z,3.70
2018-09-01T03:31:56.072Z,3.70
2018-09-01T03:32:56.110Z,3.60
2018-09-01T03:33:56.080Z,3.70
2018-09-01T03:34:56.074Z,3.30
2018-09-01T03:35:56.126Z,3.70
2018-09-01T03:36:56.095Z,3.50
2018-09-01T03:37:56.147Z,4.10
2018-09-01T03:38:56.129Z,3.70
2018-09-01T03:39:56.167Z,3.90
2018-09-01T03:40:56.161Z,3.60
2018-09-01T03:41:56.161Z,4.00
2018-09-01T03:42:56.160Z,4.00
2018-09-01T03:43:56.156Z,3.90
2018-09-01T03:44:56.206Z,3.80
2018-09-01T03:45:56.209Z,4.00
2018-09-01T03:46:56.199Z,3.80
2018-09-01T03:47:56.204Z,3.80
2018-09-01T03:48:56.223Z,3.70
2018-09-01T03:49:56.246Z,3.70
2018-09-01T03:50:56.264Z,3.60
2018-09-01T03:51:56.296Z,3.70
2018-09-01T03:52:56.247Z,4.50
2018-09-01T03:53:56.256Z,4.10
2018-09-01T03:54:56.271Z,4.60
2018-09-01T03:55:56.303Z,4.50
2018-09-01T03:56:56.291Z,4.20
2018-09-01T03:57:56.329Z,3.90
2018-09-01T03:58:56.325Z,3.70
2018-09-01T03:59:56.388Z,3.80
2018-09-01T04:00:56.322Z,3.80
2018-09-01T04:01:56.340Z,4.00
2018-09-01T04:02:56.412Z,4.10
2018-09-01T04:03:56.379Z,3.80
2018-09-01T04:04:56.369Z,4.00
2018-09-01T04:05:56.380Z,4.10
2018-09-01T04:06:56.390Z,4.60
2018-09-01T04:07:56.396Z,3.90
2018-09-01T04:08:56.419Z,3.70
2018-09-01T04:09:56.424Z,3.80
2018-09-01T04:10:56.420Z,4.00
2018-09-01T04:11:56.455Z,3.90
2018-09-01T04:12:56.447Z,4.00
2018-09-01T04:13:56.472Z,4.10
2018-09-01T04:14:56.465Z,4.00
2018-09-01T04:15:56.488Z,4.00
2018-09-01T04:16:56.503Z,4.00
2018-09-01T04:17:56.525Z,3.90
2018-09-01T04:18:56.518Z,4.00
2018-09-01T04:19:56.530Z,4.10
2018-09-01T04:20:56.522Z,3.90
2018-09-01T04:21:56.527Z,4.10
2018-09-01T04:22:56.559Z,4.10
2018-09-01T04:23:56.553Z,3.90
2018-09-01T04:24:56.557Z,4.00
2018-09-01T04:25:56.561Z,4.20
2018-09-01T04:26:56.626Z,4.10
2018-09-01T04:27:56.613Z,4.00
2018-09-01T04:28:56.611Z,3.90
2018-09-01T04:29:56.628Z,4.00
2018-09-01T04:30:56.600Z,4.00
2018-09-01T04:31:56.622Z,3.80
2018-09-01T04:32:56.638Z,3.90
2018-09-01T04:33:56.646Z,4.30
2018-09-01T04:34:56.688Z,3.90
2018-09-01T04:35:56.677Z,4.30
2018-09-01T04:36:56.666Z,4.10
2018-09-01T04:37:56.655Z,4.10
2018-09-01T04:38:56.688Z,4.60
2018-09-01T04:39:56.686Z,4.40
2018-09-01T04:40:56.734Z,4.50
2018-09-01T04:41:56.748Z,4.10
2018-09-01T04:42:56.741Z,4.30
2018-09-01T04:43:56.723Z,4.50
2018-09-01T04:44:56.733Z,4.50
2018-09-01T04:45:56.748Z,3.90
2018-09-01T04:46:56.843Z,4.20
2018-09-01T04:47:56.762Z,4.40
2018-09-01T04:48:56.781Z,4.30
2018-09-01T04:49:56.790Z,4.30
2018-09-01T04:50:56.804Z,4.40
2018-09-01T04:51:56.830Z,4.30
2018-09-01T04:52:56.798Z,4.40
2018-09-01T04:53:56.834Z,4.50
2018-09-01T04:54:56.841Z,4.40
2018-09-01T04:55:56.831Z,4.40
2018-09-01T04:56:56.885Z,4.10
2018-09-01T04:57:56.858Z,4.10
2018-09-01T04:58:56.885Z,4.60
2018-09-01T04:59:56.875Z,4.30
2018-09-01T05:00:57.014Z,4.40
2018-09-01T05:01:56.890Z,4.80
2018-09-01T05:02:56.902Z,4.20
2018-09-01T05:03:56.951Z,4.60
2018-09-01T05:04:56.933Z,4.50
2018-09-01T05:05:56.949Z,4.50
2018-09-01T05:06:56.977Z,4.50
2018-09-01T05:07:56.973Z,4.80
2018-09-01T05:08:56.954Z,4.80
2018-09-01T05:09:56.985Z,4.50
2018-09-01T05:10:57.030Z,4.40
2018-09-01T05:11:57.006Z,4.90
2018-09-01T05:12:56.992Z,4.60
2018-09-01T05:13:56.999Z,4.50
2018-09-01T05:14:57.018Z,4.60
2018-09-01T05:15:57.028Z,4.30
2018-09-01T05:16:57.075Z,5.20
2018-09-01T05:17:57.050Z,4.50
2018-09-01T05:18:57.046Z,4.70
2018-09-01T05:19:57.062Z,4.70
2018-09-01T05:20:57.062Z,4.50
2018-09-01T05:21:57.108Z,4.50
2018-09-01T05:22:57.117Z,4.40
2018-09-01T05:23:57.161Z,4.60
2018-09-01T05:24:57.111Z,4.20
2018-09-01T05:25:57.132Z,4.40
2018-09-01T05:26:57.147Z,4.80
2018-09-01T05:27:57.168Z,4.70
2018-09-01T05:28:57.186Z,4.40
2018-09-01T05:29:57.165Z,4.90
2018-09-01T05:30:57.182Z,5.20
2018-09-01T05:31:57.191Z,5.00
2018-09-01T05:32:57.199Z,5.40
2018-09-01T05:33:57.231Z,5.60
2018-09-01T05:34:57.195Z,5.00
2018-09-01T05:35:57.236Z,5.50
2018-09-01T05:36:57.248Z,5.20
2018-09-01T05:37:57.218Z,4.90
2018-09-01T05:38:57.229Z,5.00
2018-09-01T05:39:57.272Z,5.00
2018-09-01T05:40:57.302Z,4.70
2018-09-01T05:41:57.260Z,4.90
2018-09-01T05:42:57.296Z,5.90
2018-09-01T05:43:57.329Z,5.30
2018-09-01T05:44:57.318Z,4.80
2018-09-01T05:45:57.362Z,6.10
2018-09-01T05:46:57.324Z,5.20
2018-09-01T05:47:57.347Z,4.70
2018-09-01T05:48:57.335Z,5.20
2018-09-01T05:49:57.368Z,5.10
2018-09-01T05:50:57.355Z,4.80
2018-09-01T05:51:57.434Z,5.20
2018-09-01T05:52:57.366Z,5.10
2018-09-01T05:53:57.404Z,5.50
2018-09-01T05:54:57.398Z,5.60
2018-09-01T05:55:57.412Z,5.80
2018-09-01T05:56:57.452Z,5.40
2018-09-01T05:57:57.488Z,4.90
2018-09-01T05:58:57.455Z,5.30
2018-09-01T05:59:57.465Z,5.30
2018-09-01T06:00:57.471Z,6.30
2018-09-01T06:01:57.480Z,6.00
2018-09-01T06:02:57.484Z,5.40
2018-09-01T06:03:57.558Z,5.20
2018-09-01T06:04:57.513Z,5.90
2018-09-01T06:05:57.519Z,5.50
2018-09-01T06:06:57.559Z,5.60
2018-09-01T06:07:57.541Z,5.60
2018-09-01T06:08:57.589Z,5.60
2018-09-01T06:09:57.584Z,5.40
2018-09-01T06:10:57.601Z,5.90
2018-09-01T06:11:57.575Z,5.30
2018-09-01T06:12:57.592Z,5.40
2018-09-01T06:13:57.631Z,5.60
2018-09-01T06:14:57.604Z,6.00
2018-09-01T06:15:57.636Z,5.30
2018-09-01T06:16:57.621Z,5.60
2018-09-01T06:17:57.843Z,6.20
2018-09-01T06:18:57.644Z,5.90
2018-09-01T06:19:57.651Z,6.30
2018-09-01T06:20:57.666Z,5.70
2018-09-01T06:21:57.684Z,11.90
2018-09-01T06:22:57.715Z,7.10
2018-09-01T06:23:57.732Z,6.00
2018-09-01T06:24:57.786Z,5.40
2018-09-01T06:25:57.735Z,6.10
2018-09-01T06:26:57.750Z,6.00
2018-09-01T06:27:57.823Z,6.30
2018-09-01T06:28:57.755Z,5.90
2018-09-01T06:29:57.814Z,6.00
2018-09-01T06:30:57.821Z,6.40
2018-09-01T06:31:57.795Z,5.80
2018-09-01T06:32:57.801Z,5.70
2018-09-01T06:33:57.801Z,6.10
2018-09-01T06:34:57.835Z,5.90
2018-09-01T06:35:57.835Z,6.10
2018-09-01T06:36:57.841Z,6.60
2018-09-01T06:37:57.833Z,5.90
2018-09-01T06:38:57.871Z,5.90
2018-09-01T06:39:57.873Z,5.90
2018-09-01T06:40:57.887Z,6.00
2018-09-01T06:41:57.904Z,6.10
2018-09-01T06:42:57.954Z,5.40
2018-09-01T06:43:57.910Z,5.50
2018-09-01T06:44:57.924Z,5.80
2018-09-01T06:45:57.952Z,5.60
2018-09-01T06:46:57.986Z,5.30
2018-09-01T06:47:57.955Z,5.90
2018-09-01T06:48:57.970Z,5.80
2018-09-01T06:49:57.981Z,6.20
2018-09-01T06:50:58.015Z,5.90
2018-09-01T06:51:58.017Z,6.00
2018-09-01T06:52:58.046Z,6.30
2018-09-01T06:53:58.041Z,6.40
2018-09-01T06:54:58.043Z,6.90
2018-09-01T06:55:58.146Z,6.70
2018-09-01T06:56:58.060Z,5.90
2018-09-01T06:57:58.061Z,5.70
2018-09-01T06:58:58.092Z,6.10
2018-09-01T06:59:58.106Z,6.10
2018-09-01T07:00:58.194Z,5.90
2018-09-01T07:01:58.105Z,6.20
2018-09-01T07:02:58.105Z,6.30
2018-09-01T07:03:58.146Z,7.10
2018-09-01T07:04:58.130Z,6.00
2018-09-01T07:05:58.158Z,6.20
2018-09-01T07:06:58.186Z,6.30
2018-09-01T07:07:58.347Z,6.00
2018-09-01T07:08:58.191Z,6.30
2018-09-01T07:09:58.235Z,6.10
2018-09-01T07:10:58.216Z,6.20
2018-09-01T07:11:58.352Z,6.90
2018-09-01T07:12:58.222Z,8.20
2018-09-01T07:13:58.267Z,7.80
2018-09-01T07:14:58.296Z,6.90
2018-09-01T07:15:58.294Z,6.70
2018-09-01T07:16:58.266Z,7.10
2018-09-01T07:17:58.300Z,7.10
2018-09-01T07:18:58.299Z,6.80
2018-09-01T07:19:58.351Z,6.30
2018-09-01T07:20:58.300Z,6.60
2018-09-01T07:21:58.332Z,6.20
2018-09-01T07:22:58.364Z,6.00
2018-09-01T07:23:58.343Z,6.40
2018-09-01T07:24:58.381Z,6.30
2018-09-01T07:25:58.364Z,6.70
2018-09-01T07:26:58.440Z,8.10
2018-09-01T07:27:58.387Z,9.80
2018-09-01T07:28:58.402Z,9.20
2018-09-01T07:29:58.427Z,9.20
2018-09-01T07:30:58.870Z,7.90
2018-09-01T07:31:58.439Z,8.80
2018-09-01T07:32:58.464Z,7.20
2018-09-01T07:33:58.457Z,6.60
2018-09-01T07:34:58.490Z,6.60
2018-09-01T07:35:58.471Z,6.20
2018-09-01T07:36:58.496Z,6.30
2018-09-01T07:37:58.526Z,6.10
2018-09-01T07:38:58.501Z,6.30
2018-09-01T07:39:58.500Z,7.00
2018-09-01T07:40:58.519Z,6.10
2018-09-01T07:41:58.536Z,6.60
2018-09-01T07:42:58.578Z,6.80
2018-09-01T07:43:58.581Z,5.80
2018-09-01T07:44:58.626Z,6.30
2018-09-01T07:45:58.582Z,6.20
2018-09-01T07:46:58.611Z,6.10
2018-09-01T07:47:58.635Z,6.30
2018-09-01T07:48:58.623Z,6.30
2018-09-01T07:49:58.686Z,6.10
2018-09-01T07:50:58.629Z,6.30
2018-09-01T07:51:58.663Z,6.60
2018-09-01T07:52:58.679Z,5.70
2018-09-01T07:53:58.669Z,5.80
2018-09-01T07:54:58.675Z,5.90
2018-09-01T07:55:58.747Z,7.00
2018-09-01T07:56:58.721Z,5.60
2018-09-01T07:57:58.714Z,5.70
2018-09-01T07:58:58.757Z,6.70
2018-09-01T07:59:58.773Z,6.00
2018-09-01T08:00:58.744Z,5.50
2018-09-01T08:01:58.779Z,6.10
2018-09-01T08:02:58.749Z,5.70
2018-09-01T08:03:58.781Z,5.60
2018-09-01T08:04:58.846Z,5.90
2018-09-01T08:05:58.842Z,6.20
2018-09-01T08:06:58.839Z,5.70
2018-09-01T08:07:58.838Z,6.50
2018-09-01T08:08:59.098Z,9.40
2018-09-01T08:09:58.870Z,6.90
2018-09-01T08:10:58.901Z,6.00
2018-09-01T08:11:58.882Z,7.40
2018-09-01T08:12:59.045Z,7.40
2018-09-01T08:13:58.966Z,5.50
2018-09-01T08:14:58.879Z,6.00
2018-09-01T08:15:58.914Z,5.40
2018-09-01T08:16:58.962Z,5.30
2018-09-01T08:17:58.972Z,4.40
2018-09-01T08:18:58.934Z,5.40
2018-09-01T08:19:58.949Z,5.10
2018-09-01T08:20:58.991Z,4.70
2018-09-01T08:21:59.003Z,6.40
2018-09-01T08:22:58.964Z,6.00
2018-09-01T08:23:58.990Z,6.60
2018-09-01T08:24:59.012Z,5.60
2018-09-01T08:25:59.035Z,5.30
2018-09-01T08:26:59.119Z,5.20
2018-09-01T08:27:59.041Z,5.50
2018-09-01T08:28:59.079Z,5.00
2018-09-01T08:29:59.056Z,5.10
2018-09-01T08:30:59.049Z,5.00
2018-09-01T08:31:59.132Z,5.30
2018-09-01T08:32:59.110Z,5.30
2018-09-01T08:33:59.166Z,7.60
2018-09-01T08:34:59.147Z,6.20
2018-09-01T08:35:59.142Z,6.40
2018-09-01T08:36:59.221Z,4.80
2018-09-01T08:37:59.306Z,5.10
2018-09-01T08:38:59.151Z,4.30
2018-09-01T08:39:59.177Z,5.60
2018-09-01T08:40:59.172Z,5.00
2018-09-01T08:41:59.186Z,4.70
2018-09-01T08:42:59.179Z,5.60
2018-09-01T08:43:59.245Z,4.80
2018-09-01T08:44:59.211Z,6.30
2018-09-01T08:45:59.223Z,5.50
2018-09-01T08:46:59.216Z,5.20
2018-09-01T08:47:59.258Z,4.80
2018-09-01T08:48:59.301Z,5.00
2018-09-01T08:49:59.303Z,4.80
2018-09-01T08:50:59.289Z,5.00
2018-09-01T08:51:59.298Z,6.30
2018-09-01T08:52:59.305Z,7.60
2018-09-01T08:53:59.321Z,5.00
2018-09-01T08:54:59.368Z,4.60
2018-09-01T08:55:59.383Z,4.30
2018-09-01T08:56:59.351Z,5.70
2018-09-01T08:57:59.340Z,5.00
2018-09-01T08:58:59.351Z,5.50
2018-09-01T08:59:59.391Z,6.00
2018-09-01T09:00:59.540Z,4.70
2018-09-01T09:01:59.430Z,7.80
2018-09-01T09:02:59.427Z,4.80
2018-09-01T09:03:59.416Z,5.10
2018-09-01T09:04:59.444Z,5.30
2018-09-01T09:05:59.448Z,4.20
2018-09-01T09:06:59.457Z,4.30
2018-09-01T09:07:59.510Z,4.80
2018-09-01T09:08:59.467Z,4.80
2018-09-01T09:09:59.468Z,5.10
2018-09-01T09:10:59.531Z,4.00
2018-09-01T09:11:59.530Z,4.40
2018-09-01T09:12:59.523Z,4.50
2018-09-01T09:13:59.525Z,4.50
2018-09-01T09:14:59.554Z,4.20
2018-09-01T09:15:59.631Z,4.60
2018-09-01T09:16:59.594Z,4.60
2018-09-01T09:17:59.588Z,4.50
2018-09-01T09:18:59.572Z,4.50
2018-09-01T09:19:59.590Z,4.30
2018-09-01T09:20:59.646Z,4.90
2018-09-01T09:21:59.644Z,4.50
2018-09-01T09:22:59.633Z,4.90
2018-09-01T09:23:59.661Z,8.60
2018-09-01T09:24:59.670Z,6.90
2018-09-01T09:25:59.985Z,4.70
2018-09-01T09:26:59.675Z,4.40
2018-09-01T09:27:59.699Z,4.80
2018-09-01T09:28:59.696Z,6.30
2018-09-01T09:29:59.739Z,5.20
2018-09-01T09:30:59.720Z,4.50
2018-09-01T09:31:59.766Z,4.40
2018-09-01T09:32:59.804Z,4.90
2018-09-01T09:33:59.746Z,4.90
2018-09-01T09:34:59.770Z,5.00
2018-09-01T09:35:59.755Z,4.40
2018-09-01T09:36:59.814Z,4.40
2018-09-01T09:37:59.812Z,4.00
2018-09-01T09:38:59.968Z,4.00
2018-09-01T09:39:59.825Z,5.10
2018-09-01T09:40:59.838Z,5.40
2018-09-01T09:41:59.940Z,5.30
2018-09-01T09:42:59.894Z,4.50
2018-09-01T09:43:59.869Z,3.90
2018-09-01T09:44:59.873Z,4.40
2018-09-01T09:45:59.894Z,5.50
2018-09-01T09:46:59.968Z,3.90
2018-09-01T09:47:59.997Z,4.80
2018-09-01T09:48:59.919Z,6.00
2018-09-01T09:49:59.961Z,6.40
2018-09-01T09:50:59.934Z,3.80
2018-09-01T09:52:00.018Z,4.70
2018-09-01T09:53:00.050Z,4.80
2018-09-01T09:53:59.985Z,4.60
2018-09-01T09:55:00.004Z,5.40
2018-09-01T09:56:00.046Z,5.10
2018-09-01T09:57:00.032Z,4.40
2018-09-01T09:58:00.080Z,5.60
2018-09-01T09:59:00.052Z,4.60
2018-09-01T10:00:00.043Z,4.70
2018-09-01T10:01:00.094Z,4.60
2018-09-01T10:02:00.235Z,4.80
2018-09-01T10:03:00.158Z,4.20
2018-09-01T10:04:00.100Z,4.90
2018-09-01T10:05:00.121Z,5.10
2018-09-01T10:06:00.338Z,5.00
2018-09-01T10:07:00.193Z,4.70
2018-09-01T10:08:00.177Z,4.20
2018-09-01T10:09:00.207Z,4.60
2018-09-01T10:10:00.161Z,5.40
2018-09-01T10:11:00.206Z,4.70
2018-09-01T10:12:00.216Z,4.70
2018-09-01T10:13:00.236Z,5.40
2018-09-01T10:14:00.200Z,4.60
2018-09-01T10:15:00.252Z,4.20
2018-09-01T10:16:00.367Z,4.30
2018-09-01T10:17:00.426Z,4.60
2018-09-01T10:18:00.296Z,4.60
2018-09-01T10:19:00.296Z,4.40
2018-09-01T10:20:00.397Z,5.50
2018-09-01T10:21:00.326Z,5.90
2018-09-01T10:22:00.469Z,6.30
2018-09-01T10:23:00.333Z,5.30
2018-09-01T10:24:00.355Z,4.80
2018-09-01T10:25:00.387Z,5.20
2018-09-01T10:26:00.413Z,4.50
2018-09-01T10:27:00.437Z,5.20
2018-09-01T10:28:00.460Z,4.70
2018-09-01T10:29:00.412Z,4.90
2018-09-01T10:30:00.432Z,4.40
2018-09-01T10:31:00.442Z,4.80
2018-09-01T10:32:00.466Z,4.80
2018-09-01T10:33:00.457Z,5.20
2018-09-01T10:34:00.522Z,4.10
2018-09-01T10:35:00.482Z,5.30
2018-09-01T10:36:00.493Z,4.60
2018-09-01T10:37:00.492Z,4.10
2018-09-01T10:38:00.507Z,5.80
2018-09-01T10:39:00.546Z,5.10
2018-09-01T10:40:00.519Z,5.10
2018-09-01T10:41:00.542Z,4.60
2018-09-01T10:42:00.554Z,4.50
2018-09-01T10:43:00.591Z,4.60
2018-09-01T10:44:00.615Z,4.40
2018-09-01T10:45:00.576Z,4.60
2018-09-01T10:46:00.593Z,5.40
2018-09-01T10:47:00.611Z,4.40
2018-09-01T10:48:00.733Z,4.80
2018-09-01T10:49:00.652Z,5.30
2018-09-01T10:50:00.704Z,5.10
2018-09-01T10:51:00.646Z,5.20
2018-09-01T10:52:00.654Z,3.90
2018-09-01T10:53:00.685Z,3.90
2018-09-01T10:54:00.712Z,4.30
2018-09-01T10:55:00.704Z,3.80
2018-09-01T10:56:00.823Z,4.00
2018-09-01T10:57:00.743Z,4.00
2018-09-01T10:58:00.823Z,5.70
2018-09-01T10:59:00.821Z,4.30
2018-09-01T11:00:00.757Z,3.70
2018-09-01T11:01:00.816Z,3.90
2018-09-01T11:02:00.779Z,4.10
2018-09-01T11:03:00.926Z,4.00
2018-09-01T11:04:00.904Z,3.70
2018-09-01T11:05:00.882Z,3.90
2018-09-01T11:06:00.840Z,3.90
2018-09-01T11:07:00.863Z,4.00
2018-09-01T11:08:00.908Z,4.20
2018-09-01T11:09:00.857Z,4.40
2018-09-01T11:10:00.870Z,3.90
2018-09-01T11:11:00.920Z,3.70
2018-09-01T11:12:00.905Z,3.70
2018-09-01T11:13:00.946Z,4.60
2018-09-01T11:14:00.939Z,4.30
2018-09-01T11:15:00.988Z,4.40
2018-09-01T11:16:00.957Z,4.10
2018-09-01T11:17:00.985Z,4.30
2018-09-01T11:18:01.039Z,4.80
2018-09-01T11:19:00.985Z,5.60
2018-09-01T11:20:01.054Z,4.90
2018-09-01T11:21:01.146Z,4.60
2018-09-01T11:22:01.041Z,4.60
2018-09-01T11:23:01.022Z,5.90
2018-09-01T11:24:01.063Z,6.30
2018-09-01T11:25:01.102Z,6.40
2018-09-01T11:26:01.077Z,7.50
2018-09-01T11:27:01.169Z,6.80
2018-09-01T11:28:01.915Z,5.90
2018-09-01T11:29:01.114Z,6.10
2018-09-01T11:30:01.132Z,6.10
2018-09-01T11:31:01.132Z,5.00
2018-09-01T11:32:01.150Z,4.70
2018-09-01T11:33:01.190Z,5.50
2018-09-01T11:34:01.205Z,6.30
2018-09-01T11:35:01.182Z,6.60
2018-09-01T11:36:01.246Z,5.40
2018-09-01T11:37:01.219Z,5.40
2018-09-01T11:38:01.228Z,5.90
2018-09-01T11:39:01.268Z,5.50
2018-09-01T11:40:01.301Z,5.00
2018-09-01T11:41:01.277Z,4.80
2018-09-01T11:42:01.296Z,5.50
2018-09-01T11:43:01.440Z,4.60
2018-09-01T11:44:01.297Z,5.90
2018-09-01T11:45:01.349Z,4.70
2018-09-01T11:46:01.329Z,5.10
2018-09-01T11:47:01.348Z,4.70
2018-09-01T11:48:01.349Z,4.20
2018-09-01T11:49:01.351Z,4.50
2018-09-01T11:50:01.441Z,7.30
2018-09-01T11:51:01.371Z,4.20
2018-09-01T11:52:01.482Z,4.20
2018-09-01T11:53:01.445Z,4.40
2018-09-01T11:54:01.456Z,4.50
2018-09-01T11:55:01.464Z,4.70
2018-09-01T11:56:01.528Z,5.40
2018-09-01T11:57:01.502Z,5.50
2018-09-01T11:58:01.484Z,4.50
2018-09-01T11:59:01.496Z,4.00
2018-09-01T12:00:01.523Z,4.10
2018-09-01T12:01:01.508Z,4.00
2018-09-01T12:02:01.568Z,4.60
2018-09-01T12:03:01.576Z,4.90
2018-09-01T12:04:01.596Z,4.20
2018-09-01T12:05:01.594Z,4.20
2018-09-01T12:06:01.614Z,4.50
2018-09-01T12:07:01.625Z,4.40
2018-09-01T12:08:01.604Z,4.60
2018-09-01T12:09:01.724Z,4.50
2018-09-01T12:10:01.664Z,4.80
2018-09-01T12:11:01.665Z,4.90
2018-09-01T12:12:01.692Z,4.40
2018-09-01T12:13:01.683Z,4.20
2018-09-01T12:14:01.718Z,4.20
2018-09-01T12:15:01.786Z,4.50
2018-09-01T12:16:01.714Z,4.70
2018-09-01T12:17:01.716Z,4.20
2018-09-01T12:18:01.721Z,4.60
2018-09-01T12:19:01.779Z,4.00
2018-09-01T12:20:01.779Z,4.70
2018-09-01T12:21:01.767Z,4.60
2018-09-01T12:22:01.793Z,4.40
2018-09-01T12:23:01.807Z,4.20
2018-09-01T12:24:01.897Z,4.40
2018-09-01T12:25:01.837Z,4.50
2018-09-01T12:26:01.880Z,4.30
2018-09-01T12:27:01.942Z,4.50
2018-09-01T12:28:01.896Z,5.20
2018-09-01T12:29:01.877Z,4.50
2018-09-01T12:30:01.891Z,4.20
2018-09-01T12:31:01.969Z,4.30
2018-09-01T12:32:01.911Z,4.30
2018-09-01T12:33:01.931Z,4.30
2018-09-01T12:34:02.126Z,4.60
2018-09-01T12:35:01.949Z,4.50
2018-09-01T12:36:01.998Z,4.60
2018-09-01T12:37:02.027Z,4.60
2018-09-01T12:38:02.013Z,4.40
2018-09-01T12:39:02.085Z,5.50
2018-09-01T12:40:02.024Z,4.70
2018-09-01T12:41:02.099Z,4.40
2018-09-01T12:42:02.081Z,4.30
2018-09-01T12:43:02.079Z,4.40
2018-09-01T12:44:02.079Z,4.50
2018-09-01T12:45:02.097Z,4.40
2018-09-01T12:46:02.145Z,4.10
2018-09-01T12:47:02.124Z,4.50
2018-09-01T12:48:02.113Z,5.00
2018-09-01T12:49:02.129Z,4.80
2018-09-01T12:50:02.121Z,4.40
2018-09-01T12:51:02.151Z,4.10
2018-09-01T12:52:02.213Z,4.60
2018-09-01T12:53:02.214Z,4.40
2018-09-01T12:54:02.173Z,5.10
2018-09-01T12:55:02.269Z,5.50
2018-09-01T12:56:02.218Z,5.00
2018-09-01T12:57:02.224Z,4.30
2018-09-01T12:58:02.235Z,4.40
2018-09-01T12:59:02.284Z,3.90
2018-09-01T13:00:02.319Z,4.10
2018-09-01T13:01:02.266Z,4.10
2018-09-01T13:02:02.340Z,3.90
2018-09-01T13:03:02.301Z,4.20
2018-09-01T13:04:02.315Z,4.20
2018-09-01T13:05:02.357Z,4.60
2018-09-01T13:06:02.344Z,4.30
2018-09-01T13:07:02.372Z,4.80
2018-09-01T13:08:02.418Z,4.20
2018-09-01T13:09:02.436Z,4.10
2018-09-01T13:10:02.413Z,4.40
2018-09-01T13:11:02.445Z,4.20
2018-09-01T13:12:02.446Z,4.40
2018-09-01T13:13:02.434Z,4.00
2018-09-01T13:14:02.509Z,4.10
2018-09-01T13:15:02.451Z,4.10
2018-09-01T13:16:02.469Z,3.90
2018-09-01T13:17:02.507Z,3.90
2018-09-01T13:18:02.505Z,4.00
2018-09-01T13:19:02.525Z,4.20